Terminal Aerodrome Forecast
Issued by NWS Burlington, VT

Home | Current Version | Previous Version | Text Only | Print | Product List | Glossary On
Versions: 1 2 3 4 5 6 7 8 9 10 11 12 13 14 15 16 17 18 19
395
FTUS41 KBTV 261126
TAFBTV
TAF
KBTV 261126Z 2612/2712 VRB03KT P6SM SCT250
     FM261800 17006KT P6SM OVC110
     FM262200 16007KT P6SM VCSH OVC045
     FM270000 15008KT P6SM VCSH OVC030
     FM270500 16010KT P6SM VCSH OVC045
     FM270900 16010KT 3SM -RA BR OVC025=

USA.gov is the U.S. government's official web portal to all federal, state and local government web resources and services.